Grand Rapids, MI (49501)

5:55 AM EST on January 23, 2017 (GMT -0500)
West Grand | | Change Station
Active Advisory: Flood Advisory

Elev 650 ft 42.98 °N, 85.69 °W | Updated 4 minutes ago

Overcast
Overcast
39.9 °F
Feels Like 40 °F
N
0.0
Wind Variable Wind from WSW

Today
High -- | Low -- °F
--% Chance of Precip.
Yesterday
High -- | Low -- °F
Precip. -- in
Pressure 29.67 in
Visibility 1.0 miles
Clouds
Windchill 40 °F
Dew Point 40 °F
Humidity 99%
Rainfall 0.00 in
Snow Depth Not available.
8:05 AM 5:43 PM
Waning Crescent, 19% visible
SPECI KGRR 231032Z AUTO 35006KT 1SM R26L/4000V4500FT BR VV003 04/03 A2967 RMK AO2 T00440033
Pressure 29.67 in
Visibility 1.0 miles
Clouds
Windchill 40 °F
Dew Point 40 °F
Humidity 99%
Rainfall 0.00 in
Snow Depth Not available.
8:05 AM 5:43 PM
Waning Crescent, 19% visible
SPECI KGRR 231032Z AUTO 35006KT 1SM R26L/4000V4500FT BR VV003 04/03 A2967 RMK AO2 T00440033

Get Your Daily Forecast Email!

Thanks for signing up!

Be on the lookout for a verification email in your inbox.

You'll start receiving the daily forecast at 8 AM.

×

10-Day Weather Forecast

Almanac

Astronomy

Jan. 23, 2017 Rise Set
Actual Time
Civil Twilight
Nautical Twilight
Astronomical Twilight
Moon
Length of Visible Light
Length of Day
Tomorrow will be .
, % of the Moon is Illuminated

Today's Extremes

State Highs State Lows

Community

WunderPhotos

Upload Photos

1,962,540 photos uploaded!

WunderBlog® & News

Nearby

Air Quality

  Air Quality AQ Index Pollutant
Not available.

Snow Depth

Station Depth Elevation

Earthquake Activity

City Distance Mag. Time & Date
Minimum magnitude displayed is 2.5.

Coastal Water Temperatures

Place Temperature

Stations

Nearby Weather Stations

Station Location Temp. Windchill Dew Point Humidity Wind Precip. Elev Updated Type
                   

Watches & Warnings

Flood Advisory
Issued: 10:07 PM EST Jan. 22, 2017 – National Weather Service

The Flood Advisory continues for
the Grand River near Comstock Park
* until late Thursday night.
* At 08 PM Sunday the stage was 11.0 feet.
* Bankfull stage is 11.0 feet.
* Flood stage is 12.0 feet.
* Forecast, the river will remain near 11.0 feet through tonight.
* Impact, at 11.0 feet... river is bankfull.


Lat... Lon 4297 8563 4303 8562 4302 8559 4309 8557
      4308 8570 4298 8572




1007 PM EST sun Jan 22 2017

The Flood Advisory continues for
the Grand River at Lowell
* until Friday morning.
* There is not current observed data.
* Bankfull stage is 10.0 feet.
* Flood stage is 15.0 feet.
* Forecast, the river will rise to near 10.1 feet after midnight
tonight.
* Impact, at 10.0 feet... river is bankfull. Expect flooding of low
lying areas adjacent to the banks.


Lat... Lon 4289 8548 4289 8534 4290 8521 4297 8524
      4296 8534 4298 8541